createdAt,value
2022-11-10T00:00:33.342Z,100050.85
2022-11-10T00:03:19.461Z,100047.17
2022-11-10T00:06:07.628Z,100040.16
2022-11-10T00:08:53.229Z,100027.25
2022-11-10T00:11:39.093Z,100030.84
2022-11-10T00:14:42.311Z,100041.30
2022-11-10T00:17:27.684Z,100043.38
2022-11-10T00:20:14.114Z,100035.23
2022-11-10T00:22:59.476Z,100037.23
2022-11-10T00:25:44.975Z,100049.98
2022-11-10T00:28:33.099Z,100057.92
2022-11-10T00:31:18.512Z,100052.69
2022-11-10T00:34:04.264Z,100060.75
2022-11-10T00:36:49.794Z,100062.48
2022-11-10T00:39:36.801Z,100062.11
2022-11-10T00:42:22.359Z,100055.86
2022-11-10T00:45:10.790Z,100062.95
2022-11-10T00:47:56.100Z,100061.20
2022-11-10T00:50:41.828Z,100067.92
2022-11-10T00:53:27.313Z,100061.13
2022-11-10T00:56:13.003Z,100062.66
2022-11-10T00:58:59.161Z,100062.08
2022-11-10T01:01:44.539Z,100064.61
2022-11-10T01:04:30.201Z,100072.67
2022-11-10T01:07:15.736Z,100076.27
2022-11-10T01:10:01.217Z,100068.98
2022-11-10T01:12:46.693Z,100065.33
2022-11-10T01:15:32.589Z,100062.88
2022-11-10T01:18:18.191Z,100065.42
2022-11-10T01:21:04.506Z,100065.04
2022-11-10T01:23:50.233Z,100063.75
2022-11-10T01:26:36.469Z,100062.48
2022-11-10T01:29:22.064Z,100063.12
2022-11-10T01:32:07.951Z,100061.86
2022-11-10T01:34:53.613Z,100060.58
2022-11-10T01:37:40.624Z,100063.62
2022-11-10T01:40:26.490Z,100062.56
2022-11-10T01:43:14.106Z,100063.77
2022-11-10T01:46:03.081Z,100062.92
2022-11-10T01:48:52.254Z,100064.10
2022-11-10T01:51:43.337Z,100066.17
2022-11-10T01:54:31.738Z,100059.94
2022-11-10T01:57:18.547Z,100064.55
2022-11-10T02:00:05.361Z,100062.27
2022-11-10T02:02:57.369Z,100067.09
2022-11-10T02:05:44.552Z,100068.63
2022-11-10T02:08:30.701Z,100068.20
2022-11-10T02:11:16.910Z,100072.65
2022-11-10T02:14:03.353Z,100074.34
2022-11-10T02:16:49.147Z,100073.12
2022-11-10T02:19:42.823Z,100069.44
2022-11-10T02:22:28.363Z,100072.40
2022-11-10T02:25:15.004Z,100076.69
2022-11-10T02:28:00.291Z,100075.61
2022-11-10T02:30:45.873Z,100078.03
2022-11-10T02:33:31.712Z,100074.74
2022-11-10T02:36:17.278Z,100079.56
2022-11-10T02:39:02.818Z,100084.93
2022-11-10T02:41:48.194Z,100085.82
2022-11-10T02:44:33.888Z,100094.82
2022-11-10T02:47:19.484Z,100099.33
2022-11-10T02:50:05.082Z,100106.05
2022-11-10T02:52:50.733Z,100107.64
2022-11-10T02:55:36.541Z,100104.72
2022-11-10T02:58:22.500Z,100106.43
2022-11-10T03:01:08.989Z,100108.69
2022-11-10T03:03:54.487Z,100107.30
2022-11-10T03:06:40.567Z,100100.90
2022-11-10T03:09:26.273Z,100104.87
2022-11-10T03:12:11.641Z,100101.18
2022-11-10T03:14:57.911Z,100102.19
2022-11-10T03:17:43.474Z,100098.52
2022-11-10T03:24:26.000Z,100103.77
2022-11-10T03:27:12.031Z,100109.61
2022-11-10T03:29:57.775Z,100111.83
2022-11-10T03:32:43.822Z,100108.31
2022-11-10T03:35:29.550Z,100115.37
2022-11-10T03:38:15.398Z,100113.77
2022-11-10T03:44:07.549Z,100115.56
2022-11-10T03:46:53.440Z,100117.60
2022-11-10T03:49:39.369Z,100122.23
2022-11-10T03:52:25.351Z,100123.59
2022-11-10T03:55:13.434Z,100133.70
2022-11-10T03:58:01.996Z,100127.75
2022-11-10T04:00:47.937Z,100132.02
2022-11-10T04:03:33.936Z,100133.73
2022-11-10T04:06:46.172Z,100132.44
2022-11-10T04:09:32.096Z,100136.31
2022-11-10T04:12:35.374Z,100138.83
2022-11-10T04:15:38.859Z,100136.64
2022-11-10T04:18:29.823Z,100135.23
2022-11-10T04:21:15.805Z,100138.80
2022-11-10T04:24:01.455Z,100140.46
2022-11-10T04:26:48.749Z,100148.53
2022-11-10T04:29:33.188Z,100151.31
2022-11-10T04:32:18.879Z,100148.63
2022-11-10T04:35:04.731Z,100148.52
2022-11-10T04:37:51.141Z,100152.55
2022-11-10T04:40:36.896Z,100158.04
2022-11-10T04:43:23.177Z,100165.27
2022-11-10T04:46:23.071Z,100165.19
2022-11-10T04:49:09.675Z,100164.52
2022-11-10T04:51:55.308Z,100161.36
2022-11-10T04:54:41.149Z,100158.52
2022-11-10T04:57:27.055Z,100163.46
2022-11-10T05:00:15.258Z,100161.54
2022-11-10T05:03:02.994Z,100161.78
2022-11-10T05:05:49.297Z,100165.38
2022-11-10T05:08:35.269Z,100158.73
2022-11-10T05:11:21.098Z,100160.73
2022-11-10T05:14:07.102Z,100161.05
2022-11-10T05:16:52.733Z,100168.28
2022-11-10T05:19:38.252Z,100172.92
2022-11-10T05:22:24.222Z,100178.67
2022-11-10T05:25:11.259Z,100181.45
2022-11-10T05:27:56.635Z,100183.54
2022-11-10T05:30:42.686Z,100189.58
2022-11-10T05:33:28.438Z,100196.14
2022-11-10T05:36:14.103Z,100200.97
2022-11-10T05:39:00.053Z,100205.97
2022-11-10T05:41:46.078Z,100210.41
2022-11-10T05:44:31.851Z,100214.34
2022-11-10T05:47:18.141Z,100223.20
2022-11-10T05:50:04.220Z,100229.23
2022-11-10T05:52:52.696Z,100232.02
2022-11-10T05:55:38.801Z,100231.75
2022-11-10T05:58:24.779Z,100240.94
2022-11-10T06:01:10.633Z,100246.15
2022-11-10T06:03:56.695Z,100246.02
2022-11-10T06:06:42.734Z,100251.59
2022-11-10T06:09:28.431Z,100253.49
2022-11-10T06:12:14.486Z,100255.77
2022-11-10T06:15:00.554Z,100259.24
2022-11-10T06:17:46.749Z,100261.83
2022-11-10T06:20:32.696Z,100270.61
2022-11-10T06:23:18.971Z,100272.30
2022-11-10T06:26:04.714Z,100278.35
2022-11-10T06:28:50.376Z,100280.27
2022-11-10T06:31:36.555Z,100286.36
2022-11-10T06:34:22.409Z,100285.53
2022-11-10T06:37:08.663Z,100286.62
2022-11-10T06:39:54.291Z,100293.45
2022-11-10T06:42:39.975Z,100295.23
2022-11-10T06:45:28.614Z,100303.56
2022-11-10T06:48:16.183Z,100305.85
2022-11-10T06:51:04.368Z,100316.41
2022-11-10T06:53:50.535Z,100319.88
2022-11-10T06:56:36.568Z,100327.88
2022-11-10T06:59:22.328Z,100332.56
2022-11-10T07:02:11.724Z,100330.25
2022-11-10T07:04:57.524Z,100332.83
2022-11-10T07:07:43.551Z,100336.37
2022-11-10T07:10:29.368Z,100340.80
2022-11-10T07:13:15.165Z,100344.28
2022-11-10T07:16:00.902Z,100344.23
2022-11-10T07:18:48.737Z,100340.05
2022-11-10T07:21:35.975Z,100342.82
2022-11-10T07:24:21.788Z,100341.23
2022-11-10T07:27:08.396Z,100348.10
2022-11-10T07:29:54.377Z,100350.81
2022-11-10T07:32:40.281Z,100348.50
2022-11-10T07:35:28.427Z,100351.02
2022-11-10T07:38:15.717Z,100353.50
2022-11-10T07:41:00.060Z,100358.55
2022-11-10T07:43:46.310Z,100364.52
2022-11-10T07:46:33.136Z,100370.55
2022-11-10T07:49:18.818Z,100372.88
2022-11-10T07:52:04.985Z,100375.41
2022-11-10T07:54:50.836Z,100375.41
2022-11-10T07:57:37.110Z,100377.84
2022-11-10T08:00:23.563Z,100380.41
2022-11-10T08:03:12.154Z,100382.43
2022-11-10T08:05:58.369Z,100381.20
2022-11-10T08:08:44.532Z,100392.30
2022-11-10T08:11:30.513Z,100390.66
2022-11-10T08:14:16.526Z,100399.83
2022-11-10T08:17:02.613Z,100410.70
2022-11-10T08:19:48.319Z,100414.23
2022-11-10T08:22:34.093Z,100412.59
2022-11-10T08:25:35.919Z,100411.30
2022-11-10T08:28:22.386Z,100413.52
2022-11-10T08:31:08.620Z,100415.59
2022-11-10T08:33:59.288Z,100416.26
2022-11-10T08:36:44.958Z,100425.44
2022-11-10T08:39:39.077Z,100428.69
2022-11-10T08:42:25.203Z,100423.48
2022-11-10T08:45:14.475Z,100432.70
2022-11-10T08:48:01.610Z,100439.89
2022-11-10T08:50:47.712Z,100446.20
2022-11-10T08:53:33.273Z,100450.63
2022-11-10T08:56:19.178Z,100456.27
2022-11-10T08:59:04.750Z,100465.06
2022-11-10T09:01:50.979Z,100468.97
2022-11-10T09:04:37.942Z,100470.77
2022-11-10T09:07:22.411Z,100471.55
2022-11-10T09:10:09.819Z,100476.05
2022-11-10T09:12:55.870Z,100474.62
2022-11-10T09:15:42.971Z,100475.09
2022-11-10T09:18:29.480Z,100480.48
2022-11-10T09:21:15.264Z,100486.83
2022-11-10T09:24:01.110Z,100487.15
2022-11-10T09:26:48.184Z,100492.53
2022-11-10T09:29:34.150Z,100490.46
2022-11-10T09:32:19.775Z,100486.06
2022-11-10T09:35:06.350Z,100490.45
2022-11-10T09:37:52.158Z,100494.46
2022-11-10T09:40:53.107Z,100497.65
2022-11-10T09:43:45.526Z,100505.71
2022-11-10T09:46:37.825Z,100501.82
2022-11-10T09:49:34.491Z,100502.40
2022-11-10T09:52:23.193Z,100506.80
2022-11-10T09:55:27.506Z,100509.14
2022-11-10T09:58:15.520Z,100511.36
2022-11-10T10:01:11.373Z,100515.83
2022-11-10T10:04:07.198Z,100520.95
2022-11-10T10:07:10.613Z,100521.34
2022-11-10T10:10:05.815Z,100518.67
2022-11-10T10:13:11.800Z,100515.55
2022-11-10T10:16:11.827Z,100528.46
2022-11-10T10:19:03.987Z,100534.33
2022-11-10T10:22:05.864Z,100531.95
2022-11-10T10:24:55.280Z,100534.42
2022-11-10T10:27:42.048Z,100530.13
2022-11-10T10:30:27.710Z,100534.27
2022-11-10T10:33:18.496Z,100532.48
2022-11-10T10:36:08.386Z,100529.77
2022-11-10T10:38:56.990Z,100529.73
2022-11-10T10:41:46.445Z,100530.02
2022-11-10T10:44:32.545Z,100538.95
2022-11-10T10:47:18.340Z,100539.42
2022-11-10T10:50:23.199Z,100532.86
2022-11-10T10:53:17.018Z,100532.41
2022-11-10T10:56:06.949Z,100532.48
2022-11-10T10:58:56.938Z,100533.63
2022-11-10T11:01:44.795Z,100536.77
2022-11-10T11:04:34.064Z,100528.91
2022-11-10T11:07:26.093Z,100536.59
2022-11-10T11:10:24.477Z,100540.73
2022-11-10T11:13:22.292Z,100541.96
2022-11-10T11:16:10.023Z,100542.19
2022-11-10T11:18:56.274Z,100545.02
2022-11-10T11:21:53.023Z,100546.73
2022-11-10T11:24:44.826Z,100545.20
2022-11-10T11:27:39.307Z,100547.36
2022-11-10T11:30:26.585Z,100545.50
2022-11-10T11:33:34.053Z,100545.85
2022-11-10T11:36:29.023Z,100552.14
2022-11-10T11:39:37.654Z,100558.13
2022-11-10T11:42:31.203Z,100560.98
2022-11-10T11:45:26.417Z,100560.93
2022-11-10T11:48:33.374Z,100558.06
2022-11-10T11:51:27.669Z,100564.00
2022-11-10T11:54:35.079Z,100567.25
2022-11-10T11:57:37.115Z,100561.67
2022-11-10T12:00:26.290Z,100570.60
2022-11-10T12:03:40.635Z,100569.88
2022-11-10T12:06:35.777Z,100569.06
2022-11-10T12:09:28.443Z,100574.61
2022-11-10T12:12:37.933Z,100567.56
2022-11-10T12:15:34.889Z,100581.48
2022-11-10T12:18:30.918Z,100577.64
2022-11-10T12:21:25.967Z,100580.55
2022-11-10T12:24:29.094Z,100584.55
2022-11-10T12:27:19.306Z,100596.84
2022-11-10T12:30:11.065Z,100601.19
2022-11-10T12:33:03.804Z,100596.65
2022-11-10T12:35:49.680Z,100600.31
2022-11-10T12:38:45.508Z,100604.17
2022-11-10T12:41:35.040Z,100611.19
2022-11-10T12:44:29.036Z,100620.02
2022-11-10T12:47:21.466Z,100620.21
2022-11-10T12:50:26.454Z,100621.13
2022-11-10T12:53:19.808Z,100623.41
2022-11-10T12:56:11.470Z,100622.50
2022-11-10T12:59:23.432Z,100624.13
2022-11-10T13:02:25.051Z,100631.09
2022-11-10T13:05:31.405Z,100638.98
2022-11-10T13:08:25.716Z,100636.23
2022-11-10T13:11:25.679Z,100640.05
2022-11-10T13:14:26.059Z,100642.35
2022-11-10T13:17:13.554Z,100646.26
2022-11-10T13:20:14.230Z,100649.96
2022-11-10T13:23:24.040Z,100660.51
2022-11-10T13:26:32.210Z,100663.19
2022-11-10T13:29:32.366Z,100666.80
2022-11-10T13:32:30.811Z,100668.08
2022-11-10T13:35:55.258Z,100669.54
2022-11-10T13:38:43.233Z,100673.67
2022-11-10T13:41:28.230Z,100681.16
2022-11-10T13:44:25.754Z,100677.95
2022-11-10T13:47:48.610Z,100683.02
2022-11-10T13:50:44.681Z,100696.91
2022-11-10T13:53:41.813Z,100704.63
2022-11-10T13:56:50.486Z,100707.14
2022-11-10T13:59:47.882Z,100712.51
2022-11-10T14:03:02.551Z,100711.65
2022-11-10T14:06:10.839Z,100717.80
2022-11-10T14:09:01.811Z,100725.52
2022-11-10T14:11:52.778Z,100732.00
2022-11-10T14:14:52.964Z,100733.73
2022-11-10T14:17:45.566Z,100738.97
2022-11-10T14:20:42.085Z,100743.05
2022-11-10T14:23:35.028Z,100743.67
2022-11-10T14:26:26.995Z,100743.34
2022-11-10T14:29:35.880Z,100750.01
2022-11-10T14:32:28.444Z,100752.64
2022-11-10T14:35:24.658Z,100757.49
2022-11-10T14:38:21.289Z,100765.00
2022-11-10T14:41:16.017Z,100771.44
2022-11-10T14:44:06.917Z,100775.20
2022-11-10T14:46:53.589Z,100785.27
2022-11-10T14:49:39.350Z,100791.67
2022-11-10T14:52:25.419Z,100794.22
2022-11-10T14:55:18.736Z,100796.08
2022-11-10T14:58:09.045Z,100800.38
2022-11-10T15:00:55.407Z,100799.98
2022-11-10T15:03:43.823Z,100806.65
2022-11-10T15:06:31.060Z,100810.92
2022-11-10T15:09:23.223Z,100814.14
2022-11-10T15:12:24.699Z,100815.10
2022-11-10T15:15:22.493Z,100823.70
2022-11-10T15:18:07.062Z,100825.84
2022-11-10T15:21:02.938Z,100829.91
2022-11-10T15:23:54.005Z,100832.90
2022-11-10T15:26:42.764Z,100836.58
2022-11-10T15:29:30.485Z,100841.75
2022-11-10T15:32:21.293Z,100846.06
2022-11-10T15:35:29.842Z,100847.61
2022-11-10T15:38:29.203Z,100848.88
2022-11-10T15:41:20.727Z,100848.60
2022-11-10T15:44:21.067Z,100855.03
2022-11-10T15:47:07.754Z,100852.27
2022-11-10T15:49:54.114Z,100860.43
2022-11-10T15:52:41.185Z,100863.60
2022-11-10T15:55:27.695Z,100863.99
2022-11-10T15:58:20.357Z,100866.77
2022-11-10T16:01:07.023Z,100871.14
2022-11-10T16:03:52.750Z,100878.48
2022-11-10T16:06:38.462Z,100881.27
2022-11-10T16:09:24.484Z,100891.70
2022-11-10T16:12:15.037Z,100898.28
2022-11-10T16:15:01.447Z,100904.84
2022-11-10T16:17:47.088Z,100908.44
2022-11-10T16:20:32.876Z,100915.33
2022-11-10T16:23:18.460Z,100922.07
2022-11-10T16:26:07.815Z,100927.46
2022-11-10T16:28:53.530Z,100939.98
2022-11-10T16:31:39.578Z,100950.23
2022-11-10T16:34:25.748Z,100953.55
2022-11-10T16:37:15.065Z,100965.73
2022-11-10T16:40:00.754Z,100965.77
2022-11-10T16:42:47.436Z,100965.30
2022-11-10T16:45:33.601Z,100971.93
2022-11-10T16:48:24.302Z,100972.69
2022-11-10T16:51:11.388Z,100976.01
2022-11-10T16:54:00.762Z,100980.75
2022-11-10T16:56:46.601Z,100978.39
2022-11-10T16:59:32.091Z,100986.61
2022-11-10T17:02:29.787Z,100984.91
2022-11-10T17:05:17.262Z,100987.56
2022-11-10T17:08:04.460Z,100994.70
2022-11-10T17:10:49.979Z,100993.70
2022-11-10T17:13:35.702Z,100994.45
2022-11-10T17:16:26.924Z,100992.95
2022-11-10T17:19:20.135Z,100995.75
2022-11-10T17:22:06.074Z,100992.69
2022-11-10T17:24:56.332Z,100991.16
2022-11-10T17:27:42.060Z,100997.59
2022-11-10T17:30:28.342Z,100996.58
2022-11-10T17:33:14.505Z,100997.46
2022-11-10T17:36:02.272Z,101002.02
2022-11-10T17:38:48.365Z,101005.20
2022-11-10T17:41:35.412Z,101008.38
2022-11-10T17:44:21.136Z,101013.08
2022-11-10T17:47:06.816Z,101017.27
2022-11-10T17:49:52.134Z,101021.77
2022-11-10T17:52:37.834Z,101023.85
2022-11-10T17:55:31.133Z,101026.63
2022-11-10T17:58:20.220Z,101030.67
2022-11-10T18:01:12.329Z,101035.09
2022-11-10T18:03:58.208Z,101032.77
2022-11-10T18:06:45.288Z,101035.42
2022-11-10T18:09:30.910Z,101035.30
2022-11-10T18:12:16.453Z,101038.98
2022-11-10T18:15:02.471Z,101044.91
2022-11-10T18:17:48.441Z,101038.70
2022-11-10T18:20:34.327Z,101034.57
2022-11-10T18:23:20.453Z,101038.27
2022-11-10T18:26:11.783Z,101046.14
2022-11-10T18:28:57.303Z,101048.80
2022-11-10T18:31:42.747Z,101045.56
2022-11-10T18:34:28.383Z,101048.40
2022-11-10T18:37:14.129Z,101051.90
2022-11-10T18:39:59.877Z,101054.73
2022-11-10T18:42:45.447Z,101055.29
2022-11-10T18:45:31.342Z,101056.16
2022-11-10T18:48:16.970Z,101054.59
2022-11-10T18:51:07.796Z,101055.98
2022-11-10T18:53:54.324Z,101057.56
2022-11-10T18:56:40.527Z,101066.43
2022-11-10T18:59:26.311Z,101069.75
2022-11-10T19:02:14.408Z,101067.89
2022-11-10T19:05:00.536Z,101067.80
2022-11-10T19:07:47.801Z,101073.58
2022-11-10T19:10:33.243Z,101076.73
2022-11-10T19:13:18.753Z,101085.58
2022-11-10T19:16:08.680Z,101093.94
2022-11-10T19:18:54.671Z,101093.11
2022-11-10T19:21:40.505Z,101098.36
2022-11-10T19:24:28.249Z,101104.46
2022-11-10T19:27:15.749Z,101113.31
2022-11-10T19:30:01.642Z,101111.95
2022-11-10T19:32:47.611Z,101121.15
2022-11-10T19:35:33.827Z,101127.58
2022-11-10T19:38:19.547Z,101130.88
2022-11-10T19:41:08.412Z,101135.39
2022-11-10T19:43:53.987Z,101139.53
2022-11-10T19:46:39.751Z,101142.31
2022-11-10T19:49:25.833Z,101147.03
2022-11-10T19:52:11.622Z,101154.70
2022-11-10T19:54:57.866Z,101157.31
2022-11-10T19:57:43.868Z,101158.40
2022-11-10T20:00:29.761Z,101160.52
2022-11-10T20:03:15.773Z,101162.61
2022-11-10T20:06:03.447Z,101161.94
2022-11-10T20:08:49.593Z,101156.10
2022-11-10T20:11:35.025Z,101158.23
2022-11-10T20:14:20.813Z,101153.95
2022-11-10T20:17:06.854Z,101154.18
2022-11-10T20:19:52.353Z,101159.05
2022-11-10T20:22:38.455Z,101158.05
2022-11-10T20:25:24.748Z,101159.96
2022-11-10T20:28:10.580Z,101162.08
2022-11-10T20:30:58.258Z,101159.15
2022-11-10T20:33:45.402Z,101162.81
2022-11-10T20:36:34.029Z,101170.63
2022-11-10T20:39:19.988Z,101166.32
2022-11-10T20:42:06.196Z,101167.36
2022-11-10T20:44:51.922Z,101172.36
2022-11-10T20:47:37.699Z,101170.14
2022-11-10T20:50:24.700Z,101170.30
2022-11-10T20:53:10.429Z,101175.52
2022-11-10T20:56:02.065Z,101172.75
2022-11-10T20:58:47.690Z,101172.06
2022-11-10T21:01:33.756Z,101171.39
2022-11-10T21:04:19.673Z,101174.19
2022-11-10T21:07:05.631Z,101170.23
2022-11-10T21:09:51.477Z,101169.04
2022-11-10T21:12:52.334Z,101175.28
2022-11-10T21:15:40.333Z,101175.13
2022-11-10T21:18:27.379Z,101178.44
2022-11-10T21:21:22.709Z,101181.92
2022-11-10T21:24:10.192Z,101184.36
2022-11-10T21:26:59.798Z,101183.86
2022-11-10T21:29:47.968Z,101199.45
2022-11-10T21:32:34.159Z,101202.05
2022-11-10T21:35:20.490Z,101205.17
2022-11-10T21:38:06.836Z,101201.36
2022-11-10T21:40:53.059Z,101208.96
2022-11-10T21:43:39.315Z,101207.77
2022-11-10T21:46:25.287Z,101204.82
2022-11-10T21:49:11.018Z,101197.55
2022-11-10T21:51:56.861Z,101204.30
2022-11-10T21:54:42.741Z,101204.81
2022-11-10T21:57:28.500Z,101203.27
2022-11-10T22:00:16.936Z,101207.27
2022-11-10T22:03:03.824Z,101214.21
2022-11-10T22:05:49.713Z,101215.61
2022-11-10T22:08:36.535Z,101216.48
2022-11-10T22:11:40.959Z,101219.77
2022-11-10T22:14:44.370Z,101218.23
2022-11-10T22:17:48.263Z,101216.66
2022-11-10T22:20:34.768Z,101214.41
2022-11-10T22:23:40.624Z,101215.81
2022-11-10T22:26:26.683Z,101211.84
2022-11-10T22:29:13.092Z,101215.47
2022-11-10T22:31:59.066Z,101216.85
2022-11-10T22:34:44.739Z,101218.07
2022-11-10T22:37:33.344Z,101223.61
2022-11-10T22:40:36.545Z,101226.55
2022-11-10T22:43:39.760Z,101237.11
2022-11-10T22:46:25.020Z,101238.16
2022-11-10T22:49:14.216Z,101237.48
2022-11-10T22:52:00.111Z,101243.88
2022-11-10T22:54:45.710Z,101241.64
2022-11-10T22:57:31.382Z,101244.06
2022-11-10T23:00:19.373Z,101247.69
2022-11-10T23:03:05.095Z,101248.04
2022-11-10T23:05:56.442Z,101256.52
2022-11-10T23:08:42.854Z,101266.56
2022-11-10T23:11:30.647Z,101264.15
2022-11-10T23:14:16.601Z,101265.70
2022-11-10T23:17:02.142Z,101263.97
2022-11-10T23:19:47.769Z,101262.41
2022-11-10T23:22:33.897Z,101267.07
2022-11-10T23:25:19.958Z,101260.52
2022-11-10T23:28:05.994Z,101267.77
2022-11-10T23:30:52.148Z,101264.31
2022-11-10T23:33:38.790Z,101268.83
2022-11-10T23:36:25.950Z,101268.67
2022-11-10T23:39:13.204Z,101269.37
2022-11-10T23:41:59.293Z,101267.82
2022-11-10T23:44:45.070Z,101268.34
2022-11-10T23:47:31.174Z,101266.95
2022-11-10T23:50:17.156Z,101271.11
2022-11-10T23:53:03.153Z,101276.13
2022-11-10T23:55:56.954Z,101279.40
2022-11-10T23:58:43.841Z,101280.77
